Addison, Michigan
Current Conditions -  °F | °C
As of 7:34 AM on Saturday 01 Nov 2014 (Local Time) from KJYM Reporting Station
Overcast Overcast  
Wind Chill: -7°   Ceiling: 2500
Heat Index: -1°   Visibility: 10mi
Dew Point: -5°   Wind: 16mph
Humidity: 73%   Direction: 10°N
Pressure: 30.26"   Gusts: 22mph
Location:  41.99°N, 84.35°W
Report Text: KJYM 011134Z AUTO 01014G19KT 10SM OVC025 M01/M05 A3026 RMK AO2 T10061049
Loading
Personal Weather Stations






























Interactive Weather Map
Tropical Storm Tracking
New forecast layout! Learn more

10-Day Weather Forecast

Advertisements
Track Severe Weather on mobile